Time;durP1;ratioP1;P1;durP2;ratioP2;P2;SDS_P1;SDS_P2;PMS_P1;PMS_P2;Temp;Humidity;BMP_temperature;BMP_pressure;BME280_temperature;BME280_humidity;BME280_pressure;Samples;Min_cycle;Max_cycle;Signal;HPM_P1;HPM_P2
2021/05/11 00:00:29;;;;;;;3.57;1.70;;;;;;;;;;5039215;28;20947;-60
2021/05/11 00:02:57;;;;;;;3.60;1.67;;;;;;;;;;5054218;28;20486;-61
2021/05/11 00:05:26;;;;;;;1.30;1.10;;;;;;;;;;5053763;28;20939;-61
2021/05/11 00:07:53;;;;;;;3.47;1.73;;;;;;;;;;5043508;28;20534;-61
2021/05/11 00:10:20;;;;;;;2.13;1.93;;;;;;;;;;5042776;28;20444;-61
2021/05/11 00:12:46;;;;;;;3.00;1.53;;;;;;;;;;5053910;28;20472;-60
2021/05/11 00:15:14;;;;;;;2.47;1.67;;;;;;;;;;5054171;28;20537;-60
2021/05/11 00:17:41;;;;;;;2.43;1.60;;;;;;;;;;5054666;28;20486;-60
2021/05/11 00:20:09;;;;;;;2.87;1.73;;;;;;;;;;5053932;28;20459;-60
2021/05/11 00:22:35;;;;;;;2.40;1.20;;;;;;;;;;5054078;28;20480;-60
2021/05/11 00:25:02;;;;;;;6.23;1.40;;;;;;;;;;5054091;28;21047;-60
2021/05/11 00:27:29;;;;;;;2.13;1.47;;;;;;;;;;5053541;28;20951;-61
2021/05/11 00:29:55;;;;;;;1.70;1.17;;;;;;;;;;5053351;28;20452;-60
2021/05/11 00:32:22;;;;;;;2.40;1.30;;;;;;;;;;5054198;28;20849;-61
2021/05/11 00:34:49;;;;;;;3.53;1.20;;;;;;;;;;5053845;28;20479;-61
2021/05/11 00:37:16;;;;;;;2.13;1.30;;;;;;;;;;5054006;28;20475;-60
2021/05/11 00:39:43;;;;;;;3.43;1.60;;;;;;;;;;5053238;28;20473;-61
2021/05/11 00:42:09;;;;;;;3.40;1.30;;;;;;;;;;5054029;28;20470;-60
2021/05/11 00:44:36;;;;;;;1.90;1.00;;;;;;;;;;5052756;28;20452;-61
2021/05/11 00:47:04;;;;;;;1.70;1.53;;;;;;;;;;5053990;28;20454;-61
2021/05/11 00:49:32;;;;;;;4.60;1.53;;;;;;;;;;5053145;28;20463;-61
2021/05/11 00:51:59;;;;;;;2.13;1.20;;;;;;;;;;5053728;28;20529;-61
2021/05/11 00:54:27;;;;;;;2.80;1.70;;;;;;;;;;5052830;28;20970;-61
2021/05/11 00:56:54;;;;;;;3.20;1.80;;;;;;;;;;5053348;28;20830;-60
2021/05/11 00:59:25;;;;;;;2.60;1.30;;;;;;;;;;5053137;28;20475;-61
2021/05/11 01:01:51;;;;;;;3.70;1.17;;;;;;;;;;5053543;28;20472;-61
2021/05/11 01:04:18;;;;;;;2.97;1.50;;;;;;;;;;5053277;28;20440;-64
2021/05/11 01:06:45;;;;;;;1.87;1.30;;;;;;;;;;5053055;28;20953;-60
2021/05/11 01:09:11;;;;;;;4.03;1.80;;;;;;;;;;5052409;28;20448;-60
2021/05/11 01:11:39;;;;;;;5.07;1.90;;;;;;;;;;5040821;28;20452;-60
2021/05/11 01:14:06;;;;;;;2.50;1.37;;;;;;;;;;5053793;28;20482;-61
2021/05/11 01:16:33;;;;;;;5.20;1.90;;;;;;;;;;5052866;28;21005;-61
2021/05/11 01:19:03;;;;;;;2.87;1.60;;;;;;;;;;5052562;28;21033;-61
2021/05/11 01:21:38;;;;;;;2.67;1.50;;;;;;;;;;5052666;28;20803;-61
2021/05/11 01:24:09;;;;;;;2.60;1.20;;;;;;;;;;5053021;28;20450;-61
2021/05/11 01:26:43;;;;;;;3.77;1.80;;;;;;;;;;5052622;28;20805;-60
2021/05/11 01:29:30;;;;;;;2.70;1.37;;;;;;;;;;5041634;28;20447;-61
2021/05/11 01:48:48;;;;;;;1.83;1.40;;;;;;;;;;5047134;28;20432;-60
2021/05/11 01:51:27;;;;;;;2.50;1.50;;;;;;;;;;5052763;28;20765;-61
2021/05/11 01:54:12;;;;;;;2.60;1.57;;;;;;;;;;5051745;28;20480;-60
2021/05/11 01:57:00;;;;;;;1.87;1.20;;;;;;;;;;5052787;28;20463;-60
2021/05/11 02:24:18;;;;;;;3.83;1.40;;;;;;;;;;5052528;28;20482;-60
2021/05/11 02:26:44;;;;;;;2.30;1.37;;;;;;;;;;5051197;28;20981;-60
2021/05/11 02:29:12;;;;;;;3.03;1.60;;;;;;;;;;5052249;28;20436;-60
2021/05/11 02:31:38;;;;;;;2.80;1.50;;;;;;;;;;5050711;28;20450;-60
2021/05/11 02:34:05;;;;;;;2.40;1.60;;;;;;;;;;5051852;28;20483;-61
2021/05/11 02:36:32;;;;;;;2.00;1.30;;;;;;;;;;5051287;28;20452;-60
2021/05/11 02:38:58;;;;;;;2.03;1.43;;;;;;;;;;5052510;28;20447;-60
2021/05/11 02:41:25;;;;;;;1.60;1.33;;;;;;;;;;5051615;28;20451;-60
2021/05/11 02:43:52;;;;;;;2.83;1.00;;;;;;;;;;5048060;28;20534;-61
2021/05/11 02:46:19;;;;;;;3.93;1.20;;;;;;;;;;5051720;28;20898;-60
2021/05/11 02:48:46;;;;;;;5.57;1.60;;;;;;;;;;5051001;28;20951;-61
2021/05/11 02:51:12;;;;;;;5.67;3.33;;;;;;;;;;5051575;28;20452;-61
2021/05/11 02:53:39;;;;;;;5.60;5.20;;;;;;;;;;5051167;28;20483;-62
2021/05/11 02:56:05;;;;;;;6.03;5.53;;;;;;;;;;5051642;28;20452;-62
2021/05/11 02:58:34;;;;;;;6.40;5.90;;;;;;;;;;5050768;28;20458;-63
2021/05/11 03:01:01;;;;;;;6.93;6.27;;;;;;;;;;5051489;28;20990;-62
2021/05/11 03:03:28;;;;;;;7.73;7.03;;;;;;;;;;5053430;22;20522;-70
2021/05/11 03:05:55;;;;;;;7.80;6.37;;;;;;;;;;5034868;28;20476;-70
2021/05/11 03:08:21;;;;;;;7.77;7.00;;;;;;;;;;5037943;28;20444;-69
2021/05/11 03:10:48;;;;;;;6.60;6.00;;;;;;;;;;5051368;28;20999;-68
2021/05/11 03:13:15;;;;;;;5.53;5.10;;;;;;;;;;5042512;28;20473;-68
2021/05/11 03:15:41;;;;;;;5.67;5.17;;;;;;;;;;5032603;28;20480;-69
2021/05/11 03:18:08;;;;;;;6.23;5.63;;;;;;;;;;5038214;28;20482;-69
2021/05/11 03:20:35;;;;;;;6.10;5.60;;;;;;;;;;5036747;28;20780;-69
2021/05/11 03:23:02;;;;;;;7.80;6.03;;;;;;;;;;5031423;28;20987;-69
2021/05/11 03:25:29;;;;;;;6.57;6.03;;;;;;;;;;5047926;28;20451;-69
2021/05/11 03:27:57;;;;;;;7.40;6.10;;;;;;;;;;5038737;28;20443;-68
2021/05/11 03:30:23;;;;;;;6.63;5.50;;;;;;;;;;5049951;28;20871;-70
2021/05/11 03:32:50;;;;;;;7.23;6.53;;;;;;;;;;5047804;28;20468;-69
2021/05/11 03:35:16;;;;;;;9.00;7.83;;;;;;;;;;5031347;28;20483;-69
2021/05/11 03:37:44;;;;;;;9.13;7.03;;;;;;;;;;5033433;28;20848;-68
2021/05/11 03:40:11;;;;;;;9.13;6.87;;;;;;;;;;5033103;28;20509;-70
2021/05/11 03:42:41;;;;;;;7.57;6.77;;;;;;;;;;5038613;28;20506;-71
2021/05/11 03:45:12;;;;;;;7.80;6.23;;;;;;;;;;5051779;28;20475;-70
2021/05/11 03:47:44;;;;;;;4.83;4.33;;;;;;;;;;5050906;28;20950;-69
2021/05/11 03:50:12;;;;;;;4.97;4.30;;;;;;;;;;5027029;28;20509;-68
2021/05/11 03:52:39;;;;;;;5.70;4.00;;;;;;;;;;5031410;28;20469;-69
2021/05/11 03:55:07;;;;;;;4.73;3.87;;;;;;;;;;5049634;28;20574;-69
2021/05/11 03:57:34;;;;;;;5.57;4.07;;;;;;;;;;5046192;28;20463;-68
2021/05/11 04:00:00;;;;;;;4.80;3.80;;;;;;;;;;5049876;28;20456;-69
2021/05/11 04:02:27;;;;;;;4.57;4.07;;;;;;;;;;5050562;28;20483;-69
2021/05/11 04:04:53;;;;;;;5.53;3.90;;;;;;;;;;5045818;28;20448;-70
2021/05/11 04:07:20;;;;;;;4.20;3.80;;;;;;;;;;5045986;28;20535;-71
2021/05/11 04:09:50;;;;;;;4.30;3.90;;;;;;;;;;5042121;28;20942;-70
2021/05/11 04:17:46;;;;;;;5.23;4.23;;;;;;;;;;5034583;28;20412;-69
2021/05/11 04:20:14;;;;;;;5.20;4.50;;;;;;;;;;5037928;28;20456;-70
2021/05/11 04:22:40;;;;;;;8.20;5.00;;;;;;;;;;5034343;28;21164;-70
2021/05/11 04:25:07;;;;;;;8.07;4.50;;;;;;;;;;5034652;28;20448;-69
2021/05/11 04:27:34;;;;;;;7.73;5.40;;;;;;;;;;5034541;28;20453;-69
2021/05/11 04:30:04;;;;;;;7.73;4.83;;;;;;;;;;5047916;28;20462;-69
2021/05/11 04:32:31;;;;;;;8.47;4.93;;;;;;;;;;5053963;28;20476;-68
2021/05/11 04:34:57;;;;;;;7.50;5.03;;;;;;;;;;5053671;28;20523;-69
2021/05/11 04:37:24;;;;;;;5.30;4.83;;;;;;;;;;5038433;28;20809;-70
2021/05/11 04:39:52;;;;;;;5.77;4.80;;;;;;;;;;5035507;28;20449;-69
2021/05/11 04:42:18;;;;;;;7.23;4.60;;;;;;;;;;5052278;28;20479;-69
2021/05/11 04:44:46;;;;;;;5.90;5.07;;;;;;;;;;5035376;28;21000;-69
2021/05/11 04:47:15;;;;;;;7.73;5.00;;;;;;;;;;5050040;28;20444;-68
2021/05/11 04:49:42;;;;;;;7.43;5.10;;;;;;;;;;5051828;28;20828;-71
2021/05/11 04:52:08;;;;;;;6.70;5.20;;;;;;;;;;5040098;28;20535;-70
2021/05/11 04:54:35;;;;;;;5.53;4.80;;;;;;;;;;5052322;28;21056;-71
2021/05/11 04:57:02;;;;;;;5.20;4.70;;;;;;;;;;5034353;28;20455;-71
2021/05/11 04:59:28;;;;;;;7.70;5.37;;;;;;;;;;5047033;28;20452;-71
2021/05/11 05:01:57;;;;;;;6.37;5.20;;;;;;;;;;5036001;28;20483;-71
2021/05/11 05:04:24;;;;;;;8.13;6.30;;;;;;;;;;5033642;28;20912;-71
2021/05/11 05:06:50;;;;;;;7.70;6.20;;;;;;;;;;5036750;28;20519;-70
2021/05/11 05:09:17;;;;;;;8.83;6.03;;;;;;;;;;5034584;28;20823;-71
2021/05/11 05:11:43;;;;;;;6.90;6.10;;;;;;;;;;5045962;28;20459;-71
2021/05/11 05:14:10;;;;;;;7.43;6.27;;;;;;;;;;5052434;28;20549;-70
2021/05/11 05:16:37;;;;;;;10.27;7.23;;;;;;;;;;5040685;28;20448;-71
2021/05/11 05:19:05;;;;;;;7.00;6.13;;;;;;;;;;5039182;28;20452;-70
2021/05/11 05:21:32;;;;;;;7.43;6.50;;;;;;;;;;5052702;28;20531;-69
2021/05/11 05:24:08;;;;;;;6.73;6.13;;;;;;;;;;5051410;28;20508;-70
2021/05/11 05:26:34;;;;;;;7.20;6.63;;;;;;;;;;5053082;28;20477;-70
2021/05/11 05:29:02;;;;;;;8.43;6.17;;;;;;;;;;5047329;28;21054;-71
2021/05/11 05:31:29;;;;;;;7.70;5.70;;;;;;;;;;5033097;28;20452;-71
2021/05/11 05:33:55;;;;;;;6.83;6.20;;;;;;;;;;5032930;28;20571;-71
2021/05/11 05:36:23;;;;;;;7.47;6.70;;;;;;;;;;5034406;28;20453;-71
2021/05/11 05:38:50;;;;;;;9.03;6.20;;;;;;;;;;5051514;28;20482;-71
2021/05/11 05:41:22;;;;;;;10.00;6.23;;;;;;;;;;5039755;28;20522;-70
2021/05/11 05:43:49;;;;;;;7.80;7.03;;;;;;;;;;5043593;28;20470;-72
2021/05/11 05:46:16;;;;;;;8.13;7.33;;;;;;;;;;5052111;28;20822;-71
2021/05/11 05:48:43;;;;;;;7.43;6.80;;;;;;;;;;5038184;28;20449;-69
2021/05/11 05:51:11;;;;;;;7.03;6.33;;;;;;;;;;5033745;28;20496;-70
2021/05/11 05:53:39;;;;;;;9.10;7.93;;;;;;;;;;5044199;28;20598;-70
2021/05/11 05:56:06;;;;;;;8.97;7.43;;;;;;;;;;5050692;28;20440;-70
2021/05/11 05:58:33;;;;;;;9.60;7.70;;;;;;;;;;5051113;28;20448;-69
2021/05/11 06:01:02;;;;;;;7.40;6.70;;;;;;;;;;5038917;28;20453;-70
2021/05/11 06:03:35;;;;;;;8.23;6.83;;;;;;;;;;5022393;28;20480;-71
2021/05/11 06:06:03;;;;;;;7.93;7.23;;;;;;;;;;5029833;28;20461;-70
2021/05/11 06:08:30;;;;;;;7.70;7.00;;;;;;;;;;5030677;28;20891;-69
2021/05/11 06:11:01;;;;;;;8.37;7.40;;;;;;;;;;5038600;28;20476;-69
2021/05/11 06:13:36;;;;;;;18.97;5.83;;;;;;;;;;5031200;28;20481;-70
2021/05/11 06:18:49;;;;;;;15.77;4.50;;;;;;;;;;5029546;28;20959;-70
2021/05/11 06:21:15;;;;;;;3.90;3.60;;;;;;;;;;5032002;28;20445;-69
2021/05/11 06:23:42;;;;;;;8.17;4.80;;;;;;;;;;5032198;28;20460;-70
2021/05/11 06:26:10;;;;;;;5.00;4.50;;;;;;;;;;5032150;28;20480;-68
2021/05/11 06:28:40;;;;;;;6.07;5.13;;;;;;;;;;5031857;28;20463;-67
2021/05/11 06:31:06;;;;;;;9.23;6.10;;;;;;;;;;5032652;28;20487;-70
2021/05/11 06:33:33;;;;;;;6.83;6.27;;;;;;;;;;5032220;28;20464;-70
2021/05/11 06:36:00;;;;;;;7.50;6.90;;;;;;;;;;5031776;28;20511;-69
2021/05/11 06:38:26;;;;;;;7.93;7.53;;;;;;;;;;5030190;28;20464;-68
2021/05/11 06:40:53;;;;;;;7.37;7.00;;;;;;;;;;5031954;28;20456;-68
2021/05/11 06:43:24;;;;;;;7.70;6.97;;;;;;;;;;5032024;28;20500;-68
2021/05/11 06:48:44;;;;;;;6.90;6.50;;;;;;;;;;5030720;28;20428;-66
2021/05/11 06:53:56;;;;;;;8.47;5.17;;;;;;;;;;5041255;28;20534;-68
2021/05/11 06:56:23;;;;;;;5.43;4.40;;;;;;;;;;5043952;28;20532;-68
2021/05/11 06:58:50;;;;;;;8.03;3.90;;;;;;;;;;5044820;28;20550;-69
2021/05/11 07:01:20;;;;;;;6.83;4.53;;;;;;;;;;5039713;28;20464;-69
2021/05/11 07:03:47;;;;;;;6.87;3.90;;;;;;;;;;5030143;28;20983;-67
2021/05/11 07:06:14;;;;;;;8.20;3.20;;;;;;;;;;5031579;28;20532;-70
2021/05/11 07:08:43;;;;;;;6.23;3.27;;;;;;;;;;5031990;28;20464;-69
2021/05/11 07:11:25;;;;;;;11.30;2.80;;;;;;;;;;5031471;28;20491;-69
2021/05/11 07:13:52;;;;;;;5.13;2.70;;;;;;;;;;5018703;28;20828;-67
2021/05/11 07:16:19;;;;;;;6.60;2.53;;;;;;;;;;5027600;28;20554;-66
2021/05/11 07:18:45;;;;;;;7.60;2.43;;;;;;;;;;5034141;28;20464;-66
2021/05/11 07:21:12;;;;;;;7.63;2.20;;;;;;;;;;5049788;28;20452;-66
2021/05/11 07:23:39;;;;;;;3.07;2.00;;;;;;;;;;5031025;28;20528;-64
2021/05/11 07:26:11;;;;;;;2.37;1.90;;;;;;;;;;5026347;28;20502;-66
2021/05/11 07:29:01;;;;;;;4.50;1.77;;;;;;;;;;5028961;28;20464;-66
2021/05/11 07:31:29;;;;;;;3.10;1.60;;;;;;;;;;5037978;28;20539;-67
2021/05/11 07:33:57;;;;;;;2.70;1.70;;;;;;;;;;5032480;28;20488;-66
2021/05/11 07:36:23;;;;;;;2.40;1.40;;;;;;;;;;5037077;28;20835;-66
2021/05/11 07:38:50;;;;;;;4.80;1.70;;;;;;;;;;5035334;28;20474;-67
2021/05/11 07:41:18;;;;;;;7.13;1.80;;;;;;;;;;5034533;28;20547;-66
2021/05/11 07:43:48;;;;;;;7.57;2.07;;;;;;;;;;5043249;28;20467;-67
2021/05/11 07:46:30;;;;;;;10.67;2.20;;;;;;;;;;5040045;28;20463;-67
2021/05/11 08:05:37;;;;;;;1.80;1.00;;;;;;;;;;5051060;28;20486;-68
2021/05/11 08:10:54;;;;;;;2.53;1.43;;;;;;;;;;5054615;28;20431;-67
2021/05/11 08:16:07;;;;;;;2.13;1.20;;;;;;;;;;5050649;28;20493;-65
2021/05/11 08:18:41;;;;;;;7.40;2.03;;;;;;;;;;5039978;28;20472;-66
2021/05/11 08:29:29;;;;;;;3.80;1.83;;;;;;;;;;5042094;28;20583;-66
2021/05/11 08:31:55;;;;;;;4.93;1.73;;;;;;;;;;5037502;28;20452;-66
2021/05/11 08:34:22;;;;;;;6.83;1.90;;;;;;;;;;5040721;28;20856;-65
2021/05/11 08:36:50;;;;;;;4.03;1.90;;;;;;;;;;5034739;28;20460;-65
2021/05/11 08:39:16;;;;;;;6.97;2.13;;;;;;;;;;5033737;28;20627;-64
2021/05/11 08:41:43;;;;;;;4.43;2.00;;;;;;;;;;5037265;28;20449;-65
2021/05/11 08:44:14;;;;;;;7.03;2.20;;;;;;;;;;5043859;28;20480;-64
2021/05/11 08:46:41;;;;;;;7.53;2.10;;;;;;;;;;5034952;28;20459;-64
2021/05/11 08:49:11;;;;;;;7.60;1.97;;;;;;;;;;5032054;28;20881;-64
2021/05/11 08:51:49;;;;;;;5.07;1.97;;;;;;;;;;5031811;28;20833;-64
2021/05/11 09:04:34;;;;;;;3.47;1.43;;;;;;;;;;5022279;28;20850;-64
2021/05/11 09:08:48;;;;;;;3.60;1.77;;;;;;;;;;5035269;28;20739;-64
2021/05/11 09:25:18;;;;;;;2.80;1.40;;;;;;;;;;5052591;28;20509;-62
2021/05/11 09:27:55;;;;;;;6.30;1.40;;;;;;;;;;5052996;28;20451;-63
2021/05/11 09:30:37;;;;;;;3.47;1.33;;;;;;;;;;5052650;28;20525;-63
2021/05/11 09:33:11;;;;;;;4.90;1.50;;;;;;;;;;5052683;28;20497;-63
2021/05/11 10:39:23;;;;;;;3.47;1.20;;;;;;;;;;5051237;28;21015;-64
2021/05/11 10:42:13;;;;;;;4.40;1.10;;;;;;;;;;5051614;28;20471;-64
2021/05/11 10:47:37;;;;;;;4.23;1.10;;;;;;;;;;5006553;28;20455;-64
2021/05/11 10:50:04;;;;;;;1.73;1.07;;;;;;;;;;5052238;28;20849;-64
2021/05/11 10:52:41;;;;;;;2.47;1.13;;;;;;;;;;5051426;28;20472;-64
2021/05/11 10:55:10;;;;;;;2.10;1.13;;;;;;;;;;5052090;28;20502;-65
2021/05/11 10:57:43;;;;;;;2.60;1.27;;;;;;;;;;5051385;28;20452;-65
2021/05/11 11:00:27;;;;;;;2.10;1.00;;;;;;;;;;5051813;28;20471;-62
2021/05/11 11:03:11;;;;;;;2.70;1.60;;;;;;;;;;5039744;28;20455;-64
2021/05/11 11:05:42;;;;;;;2.10;1.10;;;;;;;;;;5051461;28;20961;-62
2021/05/11 11:08:28;;;;;;;2.87;1.47;;;;;;;;;;5051720;28;20531;-62
2021/05/11 11:11:02;;;;;;;3.03;1.23;;;;;;;;;;5051053;28;20518;-62
2021/05/11 11:13:29;;;;;;;3.37;1.30;;;;;;;;;;5051836;28;20844;-62
2021/05/11 11:15:59;;;;;;;1.80;1.00;;;;;;;;;;5055256;28;21060;-62
2021/05/11 11:18:26;;;;;;;2.73;1.27;;;;;;;;;;5056143;28;20440;-62
2021/05/11 11:21:06;;;;;;;2.67;1.27;;;;;;;;;;5055495;28;20538;-62
2021/05/11 11:23:43;;;;;;;4.53;1.47;;;;;;;;;;5055254;28;20513;-62
2021/05/11 11:26:10;;;;;;;3.30;1.40;;;;;;;;;;5055654;28;20443;-62
2021/05/11 11:28:37;;;;;;;2.20;1.17;;;;;;;;;;5054826;28;20836;-62
2021/05/11 11:31:21;;;;;;;3.17;1.27;;;;;;;;;;5055215;28;20492;-62
2021/05/11 11:33:47;;;;;;;1.77;1.00;;;;;;;;;;5054538;28;20482;-62
2021/05/11 11:36:32;;;;;;;2.50;1.37;;;;;;;;;;5054674;28;20571;-62
2021/05/11 11:39:00;;;;;;;2.30;1.40;;;;;;;;;;5054681;28;20452;-62
2021/05/11 11:41:28;;;;;;;2.63;1.10;;;;;;;;;;5055027;28;20471;-62
2021/05/11 11:43:55;;;;;;;2.07;1.33;;;;;;;;;;5050273;28;20495;-62
2021/05/11 11:46:26;;;;;;;2.10;1.10;;;;;;;;;;5054893;28;20530;-62
2021/05/11 11:48:57;;;;;;;2.40;1.20;;;;;;;;;;5041650;28;20514;-62
2021/05/11 11:51:27;;;;;;;3.10;1.20;;;;;;;;;;5042370;28;20553;-62
2021/05/11 11:54:06;;;;;;;3.00;1.30;;;;;;;;;;5055076;28;20439;-62
2021/05/11 11:59:20;;;;;;;2.60;1.30;;;;;;;;;;5023820;28;20440;-63
2021/05/11 12:01:54;;;;;;;2.20;1.20;;;;;;;;;;5054317;28;20919;-62
2021/05/11 12:04:21;;;;;;;3.07;1.73;;;;;;;;;;5050430;28;21113;-62
2021/05/11 12:06:50;;;;;;;3.60;1.60;;;;;;;;;;5050776;28;20454;-62
2021/05/11 12:09:18;;;;;;;3.53;1.10;;;;;;;;;;5054361;28;20809;-62
2021/05/11 12:11:45;;;;;;;4.17;1.63;;;;;;;;;;5054131;28;20538;-62
2021/05/11 12:14:13;;;;;;;3.13;1.63;;;;;;;;;;5054538;28;20531;-62
2021/05/11 12:16:43;;;;;;;3.33;1.30;;;;;;;;;;5053571;28;20447;-62
2021/05/11 12:19:11;;;;;;;2.27;1.00;;;;;;;;;;5054227;28;20534;-61
2021/05/11 12:21:50;;;;;;;3.37;1.57;;;;;;;;;;5054156;28;20899;-62
2021/05/11 12:24:18;;;;;;;1.80;1.30;;;;;;;;;;5052626;28;20491;-62
2021/05/11 12:26:46;;;;;;;3.37;1.50;;;;;;;;;;5054616;28;20488;-62
2021/05/11 12:29:13;;;;;;;3.30;1.30;;;;;;;;;;5054274;28;20452;-61
2021/05/11 12:31:40;;;;;;;3.40;1.30;;;;;;;;;;5053846;28;20507;-62
2021/05/11 12:34:08;;;;;;;3.30;1.30;;;;;;;;;;5047457;28;20484;-62
2021/05/11 12:36:40;;;;;;;4.97;1.50;;;;;;;;;;5053438;28;20500;-62
2021/05/11 12:39:21;;;;;;;2.43;1.40;;;;;;;;;;5054363;28;20535;-61
2021/05/11 12:41:49;;;;;;;3.40;1.43;;;;;;;;;;5053634;28;20998;-61
2021/05/11 12:44:27;;;;;;;4.43;1.60;;;;;;;;;;5053377;28;20909;-62
2021/05/11 12:46:58;;;;;;;4.63;1.80;;;;;;;;;;5053324;28;20534;-62
2021/05/11 12:49:24;;;;;;;5.23;1.43;;;;;;;;;;5054267;28;20427;-62
2021/05/11 12:51:52;;;;;;;4.60;1.27;;;;;;;;;;5052883;28;20483;-62
2021/05/11 12:54:23;;;;;;;2.73;1.20;;;;;;;;;;5053368;28;20543;-62
2021/05/11 12:57:02;;;;;;;3.00;1.57;;;;;;;;;;5053082;28;20467;-62
2021/05/11 12:59:33;;;;;;;2.60;1.33;;;;;;;;;;5053599;28;20522;-63
2021/05/11 13:02:06;;;;;;;3.20;1.40;;;;;;;;;;5052349;28;20476;-63
2021/05/11 13:15:38;;;;;;;2.57;1.43;;;;;;;;;;5047770;28;20467;-64
2021/05/11 13:21:02;;;;;;;2.83;1.47;;;;;;;;;;5050867;28;20447;-63
2021/05/11 13:26:12;;;;;;;4.63;1.50;;;;;;;;;;5050598;28;20820;-63
2021/05/11 13:28:46;;;;;;;2.77;1.20;;;;;;;;;;5050771;28;20458;-63
2021/05/11 13:31:21;;;;;;;2.53;1.00;;;;;;;;;;5051432;28;20553;-63
2021/05/11 13:33:51;;;;;;;3.50;1.20;;;;;;;;;;5051292;28;20451;-63
2021/05/11 13:36:18;;;;;;;2.20;1.43;;;;;;;;;;5050820;28;20537;-64
2021/05/11 13:38:45;;;;;;;3.90;1.50;;;;;;;;;;5051767;28;20966;-65
2021/05/11 13:41:11;;;;;;;2.93;1.10;;;;;;;;;;5051688;28;20468;-66
2021/05/11 13:43:39;;;;;;;3.10;1.37;;;;;;;;;;5051209;28;20525;-66
2021/05/11 13:46:06;;;;;;;2.50;1.50;;;;;;;;;;5051353;28;20448;-66
2021/05/11 13:48:35;;;;;;;3.13;1.50;;;;;;;;;;5051152;28;20458;-66
2021/05/11 13:51:03;;;;;;;2.03;1.37;;;;;;;;;;5051832;28;20468;-66
2021/05/11 13:53:33;;;;;;;4.27;1.50;;;;;;;;;;5052734;28;20451;-66
2021/05/11 13:56:14;;;;;;;5.33;1.70;;;;;;;;;;5052384;28;20536;-66
2021/05/11 14:04:19;;;;;;;4.80;1.40;;;;;;;;;;5052204;28;20435;-66
2021/05/11 14:06:46;;;;;;;4.33;1.20;;;;;;;;;;5052312;28;20958;-66
2021/05/11 14:09:13;;;;;;;3.30;1.33;;;;;;;;;;5052444;28;20452;-66
2021/05/11 14:11:40;;;;;;;2.37;1.10;;;;;;;;;;5052267;28;20476;-66
2021/05/11 14:14:08;;;;;;;4.23;1.50;;;;;;;;;;5052009;28;20456;-66
2021/05/11 14:16:35;;;;;;;3.00;1.20;;;;;;;;;;5051959;28;20482;-66
2021/05/11 14:19:02;;;;;;;3.70;1.00;;;;;;;;;;5052484;28;20462;-66
2021/05/11 14:21:29;;;;;;;4.93;1.90;;;;;;;;;;5051908;28;21006;-67
2021/05/11 14:23:56;;;;;;;1.97;1.13;;;;;;;;;;5051963;28;20966;-67
2021/05/11 14:26:23;;;;;;;1.40;1.00;;;;;;;;;;5052453;28;20513;-66
2021/05/11 14:28:50;;;;;;;5.10;1.40;;;;;;;;;;5052033;28;20452;-66
2021/05/11 14:31:18;;;;;;;3.87;1.30;;;;;;;;;;5052126;28;20471;-66
2021/05/11 14:33:44;;;;;;;3.23;1.40;;;;;;;;;;5050748;28;20455;-65
2021/05/11 14:36:11;;;;;;;3.57;1.23;;;;;;;;;;5050557;28;20479;-66
2021/05/11 14:38:38;;;;;;;2.40;1.40;;;;;;;;;;5052504;28;20436;-66
2021/05/11 14:41:05;;;;;;;5.03;1.13;;;;;;;;;;5052079;28;20548;-66
2021/05/11 14:43:32;;;;;;;3.27;1.47;;;;;;;;;;5052183;28;20444;-66
2021/05/11 14:45:59;;;;;;;2.93;1.50;;;;;;;;;;5051335;28;20448;-66
2021/05/11 14:48:27;;;;;;;2.97;1.40;;;;;;;;;;5051597;28;20452;-66
2021/05/11 14:50:53;;;;;;;2.20;1.23;;;;;;;;;;5052058;28;20464;-66
2021/05/11 14:53:20;;;;;;;3.00;1.13;;;;;;;;;;5051813;28;20448;-66
2021/05/11 14:55:47;;;;;;;2.17;1.53;;;;;;;;;;5051607;28;20571;-66
2021/05/11 14:58:13;;;;;;;2.10;1.40;;;;;;;;;;5051951;28;20505;-67
2021/05/11 15:00:40;;;;;;;2.00;1.03;;;;;;;;;;5051662;28;20475;-67
2021/05/11 15:03:10;;;;;;;2.50;1.00;;;;;;;;;;5052077;28;20462;-67
2021/05/11 15:05:38;;;;;;;2.97;1.30;;;;;;;;;;5050999;28;20448;-66
2021/05/11 15:08:05;;;;;;;2.40;1.17;;;;;;;;;;5051928;28;20448;-66
2021/05/11 15:10:32;;;;;;;2.73;1.10;;;;;;;;;;5051963;28;20481;-66
2021/05/11 15:12:58;;;;;;;3.70;1.30;;;;;;;;;;5071391;22;20519;-67
2021/05/11 15:15:25;;;;;;;1.87;1.20;;;;;;;;;;5046280;28;20494;-68
2021/05/11 15:18:01;;;;;;;2.60;1.20;;;;;;;;;;5034351;28;20534;-68
2021/05/11 15:20:28;;;;;;;1.67;1.40;;;;;;;;;;5031291;28;20531;-69
2021/05/11 15:22:56;;;;;;;1.87;1.20;;;;;;;;;;5031674;28;20551;-68
2021/05/11 15:25:23;;;;;;;2.00;1.13;;;;;;;;;;5031107;28;20540;-69
2021/05/11 15:27:53;;;;;;;2.13;1.17;;;;;;;;;;5037048;28;20448;-68
2021/05/11 15:30:21;;;;;;;2.90;1.20;;;;;;;;;;5050482;28;20448;-69
2021/05/11 15:32:52;;;;;;;1.73;1.17;;;;;;;;;;5049845;28;20520;-68
2021/05/11 15:35:21;;;;;;;2.47;1.30;;;;;;;;;;5037016;28;20483;-67
2021/05/11 15:37:52;;;;;;;3.07;1.30;;;;;;;;;;5039000;28;20460;-67
2021/05/11 15:40:20;;;;;;;4.37;1.50;;;;;;;;;;5031654;28;20461;-68
2021/05/11 15:42:47;;;;;;;2.30;1.13;;;;;;;;;;5032196;28;20572;-69
2021/05/11 15:45:14;;;;;;;4.70;1.50;;;;;;;;;;5034668;28;20460;-69
2021/05/11 15:47:52;;;;;;;4.30;1.20;;;;;;;;;;5052185;28;20456;-68
2021/05/11 15:50:19;;;;;;;3.50;1.50;;;;;;;;;;5051734;28;20454;-69
2021/05/11 15:52:45;;;;;;;2.47;1.40;;;;;;;;;;5035861;28;20477;-68
2021/05/11 15:55:12;;;;;;;4.33;1.60;;;;;;;;;;5031161;28;20473;-69
2021/05/11 15:57:40;;;;;;;5.83;1.60;;;;;;;;;;5032720;28;20862;-68
2021/05/11 16:00:07;;;;;;;3.07;1.50;;;;;;;;;;5033672;28;20456;-69
2021/05/11 16:02:34;;;;;;;2.70;1.23;;;;;;;;;;5052132;28;20495;-72
2021/05/11 16:05:01;;;;;;;3.57;1.10;;;;;;;;;;5052493;28;20443;-69
2021/05/11 16:07:27;;;;;;;2.93;1.27;;;;;;;;;;5054856;28;20475;-70
2021/05/11 16:09:54;;;;;;;4.30;1.60;;;;;;;;;;5052927;28;21012;-68
2021/05/11 16:12:21;;;;;;;4.80;1.77;;;;;;;;;;5034763;28;21009;-69
2021/05/11 16:14:49;;;;;;;4.13;1.40;;;;;;;;;;5036081;28;20825;-69
2021/05/11 16:17:15;;;;;;;4.40;1.40;;;;;;;;;;5053193;28;20526;-70
2021/05/11 16:19:42;;;;;;;3.03;1.40;;;;;;;;;;5054463;28;21016;-68
2021/05/11 16:22:09;;;;;;;5.27;1.57;;;;;;;;;;5036514;28;20473;-69
2021/05/11 16:24:35;;;;;;;3.57;1.40;;;;;;;;;;5040417;28;20454;-69
2021/05/11 16:27:02;;;;;;;8.53;2.10;;;;;;;;;;5051676;28;20536;-70
2021/05/11 16:29:29;;;;;;;3.53;1.50;;;;;;;;;;5052174;28;20489;-69
2021/05/11 16:31:58;;;;;;;8.40;1.50;;;;;;;;;;5045106;28;20468;-69
2021/05/11 16:34:25;;;;;;;5.80;1.47;;;;;;;;;;5044879;28;20947;-69
2021/05/11 16:36:51;;;;;;;5.00;1.40;;;;;;;;;;5048189;28;20494;-69
2021/05/11 16:39:18;;;;;;;4.27;1.47;;;;;;;;;;5053786;28;20517;-69
2021/05/11 16:41:46;;;;;;;2.87;1.40;;;;;;;;;;5051411;28;20480;-66
2021/05/11 16:44:12;;;;;;;2.43;1.20;;;;;;;;;;5053011;28;20456;-68
2021/05/11 16:46:39;;;;;;;5.07;1.50;;;;;;;;;;5052780;28;20548;-69
2021/05/11 16:49:06;;;;;;;1.70;0.90;;;;;;;;;;5054030;28;20443;-69
2021/05/11 16:51:33;;;;;;;6.20;1.50;;;;;;;;;;5052238;28;20471;-69
2021/05/11 16:54:00;;;;;;;6.90;1.73;;;;;;;;;;5050534;28;20832;-69
2021/05/11 16:56:26;;;;;;;2.03;1.37;;;;;;;;;;5046812;28;20480;-68
2021/05/11 16:58:53;;;;;;;4.40;1.50;;;;;;;;;;5044322;28;20456;-69
2021/05/11 17:01:20;;;;;;;3.17;1.70;;;;;;;;;;5036738;28;20445;-69
2021/05/11 17:03:46;;;;;;;5.83;1.53;;;;;;;;;;5038608;28;20450;-69
2021/05/11 17:06:18;;;;;;;3.83;1.63;;;;;;;;;;5053321;28;20432;-69
2021/05/11 17:08:50;;;;;;;4.17;1.57;;;;;;;;;;5053205;28;20496;-69
2021/05/11 17:11:21;;;;;;;4.10;1.60;;;;;;;;;;5052861;28;20427;-68
2021/05/11 17:13:49;;;;;;;10.10;2.10;;;;;;;;;;5053056;28;20893;-69
2021/05/11 17:16:37;;;;;;;4.63;1.33;;;;;;;;;;5049399;28;20483;-68
2021/05/11 17:19:06;;;;;;;3.70;1.33;;;;;;;;;;5033506;28;20547;-67
2021/05/11 17:21:35;;;;;;;3.53;1.80;;;;;;;;;;5039708;28;20554;-69
2021/05/11 17:24:03;;;;;;;2.90;1.53;;;;;;;;;;5046227;28;20451;-69
2021/05/11 17:26:34;;;;;;;2.30;1.30;;;;;;;;;;5033797;28;20947;-68
2021/05/11 17:29:07;;;;;;;5.00;1.60;;;;;;;;;;5052483;28;20444;-69
2021/05/11 17:31:36;;;;;;;3.97;1.40;;;;;;;;;;5052071;28;20468;-69
2021/05/11 17:34:11;;;;;;;2.97;1.40;;;;;;;;;;5045035;28;20452;-70
2021/05/11 17:36:42;;;;;;;2.77;1.40;;;;;;;;;;5042121;28;20510;-70
2021/05/11 17:39:12;;;;;;;3.03;1.30;;;;;;;;;;5052630;28;20816;-69
2021/05/11 17:41:46;;;;;;;4.70;1.30;;;;;;;;;;5051741;28;20503;-69
2021/05/11 17:44:26;;;;;;;3.80;1.63;;;;;;;;;;5045061;28;20445;-69
2021/05/11 17:46:53;;;;;;;3.83;1.63;;;;;;;;;;5035478;28;21014;-70
2021/05/11 17:49:20;;;;;;;3.00;1.30;;;;;;;;;;5039935;28;20551;-70
2021/05/11 17:51:50;;;;;;;2.13;1.10;;;;;;;;;;5051479;28;20555;-69
2021/05/11 17:54:20;;;;;;;2.10;1.17;;;;;;;;;;5052290;28;20961;-69
2021/05/11 17:56:48;;;;;;;2.47;1.20;;;;;;;;;;5047473;28;20503;-69
2021/05/11 17:59:23;;;;;;;1.77;1.20;;;;;;;;;;5036911;28;20498;-69
2021/05/11 18:01:52;;;;;;;3.40;1.60;;;;;;;;;;5041290;28;20522;-70
2021/05/11 18:04:19;;;;;;;3.93;2.00;;;;;;;;;;5037383;28;20531;-70
2021/05/11 18:06:54;;;;;;;1.67;1.23;;;;;;;;;;5042956;28;20539;-70
2021/05/11 18:09:22;;;;;;;3.80;1.50;;;;;;;;;;5052387;28;20955;-69
2021/05/11 18:11:50;;;;;;;2.13;1.00;;;;;;;;;;5047151;28;20481;-70
2021/05/11 18:14:19;;;;;;;2.57;1.10;;;;;;;;;;5031902;28;20448;-69
2021/05/11 18:16:47;;;;;;;1.87;1.10;;;;;;;;;;5035910;28;20483;-70